sensor_id;sensor_type;location;lat;lon;timestamp;P1;durP1;ratioP1;P2;durP2;ratioP2
70967;SDS011;58629;48.808;8.820;2023-02-01T00:01:54;1.20;;;0.60;;
70967;SDS011;58629;48.808;8.820;2023-02-01T00:04:19;1.30;;;0.60;;
70967;SDS011;58629;48.808;8.820;2023-02-01T00:06:45;0.90;;;0.55;;
70967;SDS011;58629;48.808;8.820;2023-02-01T00:09:10;1.40;;;0.70;;
70967;SDS011;58629;48.808;8.820;2023-02-01T00:11:38;1.27;;;0.60;;
70967;SDS011;58629;48.808;8.820;2023-02-01T00:14:03;1.20;;;0.70;;
70967;SDS011;58629;48.808;8.820;2023-02-01T00:16:29;1.10;;;0.60;;
70967;SDS011;58629;48.808;8.820;2023-02-01T00:19:05;2.08;;;1.00;;
70967;SDS011;58629;48.808;8.820;2023-02-01T00:21:34;2.60;;;0.90;;
70967;SDS011;58629;48.808;8.820;2023-02-01T00:23:59;1.37;;;0.80;;
70967;SDS011;58629;48.808;8.820;2023-02-01T00:29:00;1.50;;;0.90;;
70967;SDS011;58629;48.808;8.820;2023-02-01T00:31:27;1.40;;;0.80;;
70967;SDS011;58629;48.808;8.820;2023-02-01T00:33:53;1.98;;;0.70;;
70967;SDS011;58629;48.808;8.820;2023-02-01T00:36:18;1.40;;;0.70;;
70967;SDS011;58629;48.808;8.820;2023-02-01T00:38:46;1.15;;;0.55;;
70967;SDS011;58629;48.808;8.820;2023-02-01T00:41:15;1.13;;;0.70;;
70967;SDS011;58629;48.808;8.820;2023-02-01T00:43:47;1.30;;;0.60;;
70967;SDS011;58629;48.808;8.820;2023-02-01T00:46:14;1.27;;;0.70;;
70967;SDS011;58629;48.808;8.820;2023-02-01T00:48:41;1.40;;;0.50;;
70967;SDS011;58629;48.808;8.820;2023-02-01T00:51:07;0.98;;;0.65;;
70967;SDS011;58629;48.808;8.820;2023-02-01T00:53:35;0.80;;;0.43;;
70967;SDS011;58629;48.808;8.820;2023-02-01T00:56:01;1.23;;;0.57;;
70967;SDS011;58629;48.808;8.820;2023-02-01T00:58:27;1.00;;;0.50;;
70967;SDS011;58629;48.808;8.820;2023-02-01T01:01:10;1.70;;;0.80;;
70967;SDS011;58629;48.808;8.820;2023-02-01T01:03:43;1.55;;;0.70;;
70967;SDS011;58629;48.808;8.820;2023-02-01T01:06:13;1.48;;;0.93;;
70967;SDS011;58629;48.808;8.820;2023-02-01T01:08:40;1.70;;;0.90;;
70967;SDS011;58629;48.808;8.820;2023-02-01T01:11:10;2.25;;;1.00;;
70967;SDS011;58629;48.808;8.820;2023-02-01T01:13:38;1.63;;;0.73;;
70967;SDS011;58629;48.808;8.820;2023-02-01T01:16:04;1.67;;;1.00;;
70967;SDS011;58629;48.808;8.820;2023-02-01T01:18:31;1.50;;;0.90;;
70967;SDS011;58629;48.808;8.820;2023-02-01T01:20:57;2.47;;;1.13;;
70967;SDS011;58629;48.808;8.820;2023-02-01T01:23:23;1.77;;;0.90;;
70967;SDS011;58629;48.808;8.820;2023-02-01T01:25:48;1.50;;;0.90;;
70967;SDS011;58629;48.808;8.820;2023-02-01T01:28:16;2.08;;;0.90;;
70967;SDS011;58629;48.808;8.820;2023-02-01T01:30:41;1.20;;;0.70;;
70967;SDS011;58629;48.808;8.820;2023-02-01T01:33:07;1.50;;;0.70;;
70967;SDS011;58629;48.808;8.820;2023-02-01T01:35:32;1.37;;;0.70;;
70967;SDS011;58629;48.808;8.820;2023-02-01T01:37:58;1.45;;;0.85;;
70967;SDS011;58629;48.808;8.820;2023-02-01T01:40:25;2.08;;;0.80;;
70967;SDS011;58629;48.808;8.820;2023-02-01T01:42:51;1.23;;;0.80;;
70967;SDS011;58629;48.808;8.820;2023-02-01T01:45:23;1.15;;;0.80;;
70967;SDS011;58629;48.808;8.820;2023-02-01T01:47:57;1.45;;;0.70;;
70967;SDS011;58629;48.808;8.820;2023-02-01T01:50:26;1.50;;;0.90;;
70967;SDS011;58629;48.808;8.820;2023-02-01T01:52:57;2.17;;;0.90;;
70967;SDS011;58629;48.808;8.820;2023-02-01T01:55:25;1.50;;;0.88;;
70967;SDS011;58629;48.808;8.820;2023-02-01T01:57:57;1.77;;;1.00;;
70967;SDS011;58629;48.808;8.820;2023-02-01T02:00:27;1.30;;;0.70;;
70967;SDS011;58629;48.808;8.820;2023-02-01T02:02:54;1.30;;;0.80;;
70967;SDS011;58629;48.808;8.820;2023-02-01T02:05:24;1.23;;;0.70;;
70967;SDS011;58629;48.808;8.820;2023-02-01T02:07:50;1.23;;;0.80;;
70967;SDS011;58629;48.808;8.820;2023-02-01T02:10:18;1.43;;;0.70;;
70967;SDS011;58629;48.808;8.820;2023-02-01T02:12:44;1.52;;;0.88;;
70967;SDS011;58629;48.808;8.820;2023-02-01T02:15:13;1.48;;;0.80;;
70967;SDS011;58629;48.808;8.820;2023-02-01T02:17:54;1.58;;;0.77;;
70967;SDS011;58629;48.808;8.820;2023-02-01T02:23:12;1.00;;;0.70;;
70967;SDS011;58629;48.808;8.820;2023-02-01T02:26:28;1.15;;;0.70;;
70967;SDS011;58629;48.808;8.820;2023-02-01T02:45:55;1.70;;;0.90;;
70967;SDS011;58629;48.808;8.820;2023-02-01T02:48:56;2.20;;;0.80;;
70967;SDS011;58629;48.808;8.820;2023-02-01T02:51:34;1.30;;;0.60;;
70967;SDS011;58629;48.808;8.820;2023-02-01T02:54:24;2.05;;;0.70;;
70967;SDS011;58629;48.808;8.820;2023-02-01T02:57:34;1.77;;;0.90;;
70967;SDS011;58629;48.808;8.820;2023-02-01T03:00:24;1.45;;;0.68;;
70967;SDS011;58629;48.808;8.820;2023-02-01T03:03:12;1.80;;;0.70;;
70967;SDS011;58629;48.808;8.820;2023-02-01T03:05:56;2.05;;;0.85;;
70967;SDS011;58629;48.808;8.820;2023-02-01T03:08:22;0.80;;;0.53;;
70967;SDS011;58629;48.808;8.820;2023-02-01T03:11:00;0.93;;;0.50;;
70967;SDS011;58629;48.808;8.820;2023-02-01T03:21:38;0.90;;;0.60;;
70967;SDS011;58629;48.808;8.820;2023-02-01T03:24:12;1.00;;;0.57;;
70967;SDS011;58629;48.808;8.820;2023-02-01T03:26:43;1.08;;;0.52;;
70967;SDS011;58629;48.808;8.820;2023-02-01T03:29:17;1.65;;;0.70;;
70967;SDS011;58629;48.808;8.820;2023-02-01T03:31:44;0.77;;;0.50;;
70967;SDS011;58629;48.808;8.820;2023-02-01T03:34:11;1.13;;;0.60;;
70967;SDS011;58629;48.808;8.820;2023-02-01T03:36:38;1.27;;;0.73;;
70967;SDS011;58629;48.808;8.820;2023-02-01T03:41:55;3.00;;;0.60;;
70967;SDS011;58629;48.808;8.820;2023-02-01T03:44:29;1.75;;;0.65;;
70967;SDS011;58629;48.808;8.820;2023-02-01T03:47:02;0.88;;;0.55;;
70967;SDS011;58629;48.808;8.820;2023-02-01T03:49:34;1.52;;;0.60;;
70967;SDS011;58629;48.808;8.820;2023-02-01T03:52:02;0.80;;;0.50;;
70967;SDS011;58629;48.808;8.820;2023-02-01T03:54:32;1.10;;;0.60;;
70967;SDS011;58629;48.808;8.820;2023-02-01T03:56:59;1.25;;;0.50;;
70967;SDS011;58629;48.808;8.820;2023-02-01T03:59:29;1.00;;;0.50;;
70967;SDS011;58629;48.808;8.820;2023-02-01T04:01:55;1.20;;;0.40;;
70967;SDS011;58629;48.808;8.820;2023-02-01T04:04:21;0.40;;;0.30;;
70967;SDS011;58629;48.808;8.820;2023-02-01T04:06:47;1.33;;;0.60;;
70967;SDS011;58629;48.808;8.820;2023-02-01T04:09:12;1.73;;;0.77;;
70967;SDS011;58629;48.808;8.820;2023-02-01T04:11:38;1.70;;;0.95;;
70967;SDS011;58629;48.808;8.820;2023-02-01T04:14:03;2.10;;;0.80;;
70967;SDS011;58629;48.808;8.820;2023-02-01T04:16:29;1.37;;;0.70;;
70967;SDS011;58629;48.808;8.820;2023-02-01T04:18:58;2.13;;;0.80;;
70967;SDS011;58629;48.808;8.820;2023-02-01T04:21:24;1.58;;;0.70;;
70967;SDS011;58629;48.808;8.820;2023-02-01T04:23:53;1.20;;;0.90;;
70967;SDS011;58629;48.808;8.820;2023-02-01T04:26:19;1.27;;;0.90;;
70967;SDS011;58629;48.808;8.820;2023-02-01T04:28:45;1.35;;;0.80;;
70967;SDS011;58629;48.808;8.820;2023-02-01T04:31:15;1.13;;;0.70;;
70967;SDS011;58629;48.808;8.820;2023-02-01T04:33:41;1.75;;;0.85;;
70967;SDS011;58629;48.808;8.820;2023-02-01T04:36:06;1.33;;;0.80;;
70967;SDS011;58629;48.808;8.820;2023-02-01T04:38:31;1.67;;;0.73;;
70967;SDS011;58629;48.808;8.820;2023-02-01T04:40:57;1.30;;;1.00;;
70967;SDS011;58629;48.808;8.820;2023-02-01T04:43:23;1.88;;;0.93;;
70967;SDS011;58629;48.808;8.820;2023-02-01T04:45:49;1.70;;;0.80;;
70967;SDS011;58629;48.808;8.820;2023-02-01T04:48:15;1.63;;;1.00;;
70967;SDS011;58629;48.808;8.820;2023-02-01T04:50:42;1.73;;;1.05;;
70967;SDS011;58629;48.808;8.820;2023-02-01T04:53:14;1.92;;;0.93;;
70967;SDS011;58629;48.808;8.820;2023-02-01T04:55:40;2.13;;;0.80;;
70967;SDS011;58629;48.808;8.820;2023-02-01T04:58:06;1.30;;;1.00;;
70967;SDS011;58629;48.808;8.820;2023-02-01T05:00:31;1.40;;;1.07;;
70967;SDS011;58629;48.808;8.820;2023-02-01T05:02:56;2.07;;;1.00;;
70967;SDS011;58629;48.808;8.820;2023-02-01T05:05:22;2.75;;;1.30;;
70967;SDS011;58629;48.808;8.820;2023-02-01T05:07:47;1.47;;;1.00;;
70967;SDS011;58629;48.808;8.820;2023-02-01T05:10:12;2.00;;;1.00;;
70967;SDS011;58629;48.808;8.820;2023-02-01T05:12:38;1.40;;;0.87;;
70967;SDS011;58629;48.808;8.820;2023-02-01T05:15:26;3.03;;;0.82;;
70967;SDS011;58629;48.808;8.820;2023-02-01T05:17:56;2.40;;;0.90;;
70967;SDS011;58629;48.808;8.820;2023-02-01T05:20:21;1.58;;;1.10;;
70967;SDS011;58629;48.808;8.820;2023-02-01T05:22:47;2.23;;;1.20;;
70967;SDS011;58629;48.808;8.820;2023-02-01T05:25:12;2.42;;;1.30;;
70967;SDS011;58629;48.808;8.820;2023-02-01T05:27:37;2.93;;;1.37;;
70967;SDS011;58629;48.808;8.820;2023-02-01T05:30:03;1.60;;;0.90;;
70967;SDS011;58629;48.808;8.820;2023-02-01T05:32:32;2.87;;;1.07;;
70967;SDS011;58629;48.808;8.820;2023-02-01T05:34:57;3.55;;;1.20;;
70967;SDS011;58629;48.808;8.820;2023-02-01T05:37:23;2.00;;;1.10;;
70967;SDS011;58629;48.808;8.820;2023-02-01T05:39:48;2.10;;;1.08;;
70967;SDS011;58629;48.808;8.820;2023-02-01T05:42:13;3.23;;;1.10;;
70967;SDS011;58629;48.808;8.820;2023-02-01T05:44:39;1.90;;;0.97;;
70967;SDS011;58629;48.808;8.820;2023-02-01T05:47:04;2.20;;;1.30;;
70967;SDS011;58629;48.808;8.820;2023-02-01T05:49:29;2.77;;;1.40;;
70967;SDS011;58629;48.808;8.820;2023-02-01T05:51:55;2.07;;;1.13;;
70967;SDS011;58629;48.808;8.820;2023-02-01T05:54:20;2.27;;;1.10;;
70967;SDS011;58629;48.808;8.820;2023-02-01T05:56:45;2.20;;;1.20;;
70967;SDS011;58629;48.808;8.820;2023-02-01T05:59:13;2.10;;;1.10;;
70967;SDS011;58629;48.808;8.820;2023-02-01T06:01:38;2.65;;;1.50;;
70967;SDS011;58629;48.808;8.820;2023-02-01T06:04:03;3.13;;;1.50;;
70967;SDS011;58629;48.808;8.820;2023-02-01T06:06:28;3.17;;;1.63;;
70967;SDS011;58629;48.808;8.820;2023-02-01T06:08:54;4.17;;;1.80;;
70967;SDS011;58629;48.808;8.820;2023-02-01T06:11:19;4.93;;;2.20;;
70967;SDS011;58629;48.808;8.820;2023-02-01T06:13:44;4.10;;;2.40;;
70967;SDS011;58629;48.808;8.820;2023-02-01T06:16:10;4.70;;;2.03;;
70967;SDS011;58629;48.808;8.820;2023-02-01T06:18:35;4.00;;;2.00;;
70967;SDS011;58629;48.808;8.820;2023-02-01T06:21:01;4.93;;;1.98;;
70967;SDS011;58629;48.808;8.820;2023-02-01T06:23:27;4.40;;;2.27;;
70967;SDS011;58629;48.808;8.820;2023-02-01T06:26:01;4.22;;;2.40;;
70967;SDS011;58629;48.808;8.820;2023-02-01T06:28:31;5.65;;;2.25;;
70967;SDS011;58629;48.808;8.820;2023-02-01T06:30:57;4.57;;;2.40;;
70967;SDS011;58629;48.808;8.820;2023-02-01T06:33:27;3.80;;;2.20;;
70967;SDS011;58629;48.808;8.820;2023-02-01T06:35:58;5.57;;;2.53;;
70967;SDS011;58629;48.808;8.820;2023-02-01T06:38:25;4.63;;;2.45;;
70967;SDS011;58629;48.808;8.820;2023-02-01T06:40:54;5.55;;;2.50;;
70967;SDS011;58629;48.808;8.820;2023-02-01T06:43:21;7.05;;;2.47;;
70967;SDS011;58629;48.808;8.820;2023-02-01T06:45:50;6.22;;;2.53;;
70967;SDS011;58629;48.808;8.820;2023-02-01T06:48:15;4.93;;;2.43;;
70967;SDS011;58629;48.808;8.820;2023-02-01T06:50:41;5.73;;;2.40;;
70967;SDS011;58629;48.808;8.820;2023-02-01T06:53:09;4.23;;;2.00;;
70967;SDS011;58629;48.808;8.820;2023-02-01T06:55:36;5.43;;;2.30;;
70967;SDS011;58629;48.808;8.820;2023-02-01T06:58:04;7.27;;;2.50;;
70967;SDS011;58629;48.808;8.820;2023-02-01T07:00:29;5.35;;;2.35;;
70967;SDS011;58629;48.808;8.820;2023-02-01T07:02:57;5.10;;;2.30;;
70967;SDS011;58629;48.808;8.820;2023-02-01T07:05:23;5.97;;;2.50;;
70967;SDS011;58629;48.808;8.820;2023-02-01T07:07:49;4.87;;;2.20;;
70967;SDS011;58629;48.808;8.820;2023-02-01T07:10:14;6.43;;;2.30;;
70967;SDS011;58629;48.808;8.820;2023-02-01T07:12:40;6.37;;;2.37;;
70967;SDS011;58629;48.808;8.820;2023-02-01T07:15:05;4.93;;;2.50;;
70967;SDS011;58629;48.808;8.820;2023-02-01T07:17:31;5.20;;;2.40;;
70967;SDS011;58629;48.808;8.820;2023-02-01T07:19:57;5.80;;;2.95;;
70967;SDS011;58629;48.808;8.820;2023-02-01T07:22:26;5.80;;;2.60;;
70967;SDS011;58629;48.808;8.820;2023-02-01T07:24:54;7.32;;;2.92;;
70967;SDS011;58629;48.808;8.820;2023-02-01T07:27:19;6.30;;;2.60;;
70967;SDS011;58629;48.808;8.820;2023-02-01T07:29:45;8.18;;;3.00;;
70967;SDS011;58629;48.808;8.820;2023-02-01T07:32:10;6.07;;;2.93;;
70967;SDS011;58629;48.808;8.820;2023-02-01T07:34:35;9.53;;;3.03;;
70967;SDS011;58629;48.808;8.820;2023-02-01T07:37:00;8.50;;;2.70;;
70967;SDS011;58629;48.808;8.820;2023-02-01T07:39:26;7.07;;;2.90;;
70967;SDS011;58629;48.808;8.820;2023-02-01T07:41:53;5.60;;;2.25;;
70967;SDS011;58629;48.808;8.820;2023-02-01T07:44:19;8.77;;;2.97;;
70967;SDS011;58629;48.808;8.820;2023-02-01T07:46:47;8.25;;;2.70;;
70967;SDS011;58629;48.808;8.820;2023-02-01T07:49:13;6.27;;;2.50;;
70967;SDS011;58629;48.808;8.820;2023-02-01T07:51:38;7.22;;;2.83;;
70967;SDS011;58629;48.808;8.820;2023-02-01T07:54:06;5.57;;;2.50;;
70967;SDS011;58629;48.808;8.820;2023-02-01T07:56:31;7.00;;;2.63;;
70967;SDS011;58629;48.808;8.820;2023-02-01T07:58:57;8.63;;;2.53;;
70967;SDS011;58629;48.808;8.820;2023-02-01T08:01:25;8.07;;;2.80;;
70967;SDS011;58629;48.808;8.820;2023-02-01T08:06:18;11.53;;;2.70;;
70967;SDS011;58629;48.808;8.820;2023-02-01T08:08:48;6.38;;;2.13;;
70967;SDS011;58629;48.808;8.820;2023-02-01T08:11:14;7.22;;;2.40;;
70967;SDS011;58629;48.808;8.820;2023-02-01T08:13:40;5.10;;;2.17;;
70967;SDS011;58629;48.808;8.820;2023-02-01T08:16:06;5.13;;;2.00;;
70967;SDS011;58629;48.808;8.820;2023-02-01T08:18:36;6.65;;;2.20;;
70967;SDS011;58629;48.808;8.820;2023-02-01T08:23:35;6.53;;;2.50;;
70967;SDS011;58629;48.808;8.820;2023-02-01T08:26:09;5.53;;;2.27;;
70967;SDS011;58629;48.808;8.820;2023-02-01T08:28:38;6.85;;;2.10;;
70967;SDS011;58629;48.808;8.820;2023-02-01T08:31:06;6.10;;;2.28;;
70967;SDS011;58629;48.808;8.820;2023-02-01T08:33:33;5.50;;;1.95;;
70967;SDS011;58629;48.808;8.820;2023-02-01T08:36:11;5.03;;;1.90;;
70967;SDS011;58629;48.808;8.820;2023-02-01T08:38:39;6.83;;;2.13;;
70967;SDS011;58629;48.808;8.820;2023-02-01T08:41:23;6.22;;;2.10;;
70967;SDS011;58629;48.808;8.820;2023-02-01T08:43:53;6.32;;;2.03;;
70967;SDS011;58629;48.808;8.820;2023-02-01T08:46:19;6.65;;;2.15;;
70967;SDS011;58629;48.808;8.820;2023-02-01T08:48:45;6.37;;;2.20;;
70967;SDS011;58629;48.808;8.820;2023-02-01T08:51:13;6.35;;;1.98;;
70967;SDS011;58629;48.808;8.820;2023-02-01T08:53:42;6.22;;;2.22;;
70967;SDS011;58629;48.808;8.820;2023-02-01T08:56:08;6.88;;;2.00;;
70967;SDS011;58629;48.808;8.820;2023-02-01T08:58:37;10.35;;;2.30;;
70967;SDS011;58629;48.808;8.820;2023-02-01T09:01:04;7.20;;;2.20;;
70967;SDS011;58629;48.808;8.820;2023-02-01T09:03:33;9.43;;;2.60;;
70967;SDS011;58629;48.808;8.820;2023-02-01T09:06:01;6.65;;;2.45;;
70967;SDS011;58629;48.808;8.820;2023-02-01T09:08:28;6.40;;;2.30;;
70967;SDS011;58629;48.808;8.820;2023-02-01T09:10:53;8.32;;;2.30;;
70967;SDS011;58629;48.808;8.820;2023-02-01T09:13:25;12.00;;;2.58;;
70967;SDS011;58629;48.808;8.820;2023-02-01T09:15:51;6.00;;;2.50;;
70967;SDS011;58629;48.808;8.820;2023-02-01T09:18:16;7.82;;;2.30;;
70967;SDS011;58629;48.808;8.820;2023-02-01T09:20:42;6.60;;;2.10;;
70967;SDS011;58629;48.808;8.820;2023-02-01T09:23:08;8.63;;;2.10;;
70967;SDS011;58629;48.808;8.820;2023-02-01T09:25:33;9.17;;;2.10;;
70967;SDS011;58629;48.808;8.820;2023-02-01T09:27:58;7.83;;;2.00;;
70967;SDS011;58629;48.808;8.820;2023-02-01T09:30:24;9.43;;;2.10;;
70967;SDS011;58629;48.808;8.820;2023-02-01T09:32:49;8.23;;;2.30;;
70967;SDS011;58629;48.808;8.820;2023-02-01T09:35:14;9.77;;;2.25;;
70967;SDS011;58629;48.808;8.820;2023-02-01T09:37:40;6.73;;;1.73;;
70967;SDS011;58629;48.808;8.820;2023-02-01T09:40:05;9.20;;;2.20;;
70967;SDS011;58629;48.808;8.820;2023-02-01T09:48:13;5.53;;;1.80;;
70967;SDS011;58629;48.808;8.820;2023-02-01T09:50:43;8.10;;;1.73;;
70967;SDS011;58629;48.808;8.820;2023-02-01T09:53:20;8.15;;;2.20;;
70967;SDS011;58629;48.808;8.820;2023-02-01T09:56:05;9.10;;;1.80;;
70967;SDS011;58629;48.808;8.820;2023-02-01T09:58:38;7.27;;;1.97;;
70967;SDS011;58629;48.808;8.820;2023-02-01T10:01:11;4.45;;;1.70;;
70967;SDS011;58629;48.808;8.820;2023-02-01T10:03:47;5.70;;;1.65;;
70967;SDS011;58629;48.808;8.820;2023-02-01T10:12:12;7.40;;;1.90;;
70967;SDS011;58629;48.808;8.820;2023-02-01T10:14:49;5.90;;;1.80;;
70967;SDS011;58629;48.808;8.820;2023-02-01T10:22:37;6.78;;;2.05;;
70967;SDS011;58629;48.808;8.820;2023-02-01T10:27:38;7.38;;;1.88;;
70967;SDS011;58629;48.808;8.820;2023-02-01T10:30:14;5.25;;;1.40;;
70967;SDS011;58629;48.808;8.820;2023-02-01T10:32:52;6.43;;;1.58;;
70967;SDS011;58629;48.808;8.820;2023-02-01T10:35:22;7.18;;;1.65;;
70967;SDS011;58629;48.808;8.820;2023-02-01T10:37:52;7.60;;;2.03;;
70967;SDS011;58629;48.808;8.820;2023-02-01T10:42:44;7.80;;;1.73;;
70967;SDS011;58629;48.808;8.820;2023-02-01T10:45:16;6.50;;;1.75;;
70967;SDS011;58629;48.808;8.820;2023-02-01T10:47:44;5.40;;;1.75;;
70967;SDS011;58629;48.808;8.820;2023-02-01T10:50:30;5.90;;;1.20;;
70967;SDS011;58629;48.808;8.820;2023-02-01T10:53:11;6.55;;;1.45;;
70967;SDS011;58629;48.808;8.820;2023-02-01T10:58:17;6.05;;;1.50;;
70967;SDS011;58629;48.808;8.820;2023-02-01T11:01:01;7.32;;;1.80;;
70967;SDS011;58629;48.808;8.820;2023-02-01T11:12:10;4.78;;;1.10;;
70967;SDS011;58629;48.808;8.820;2023-02-01T11:14:30;5.50;;;1.40;;
70967;SDS011;58629;48.808;8.820;2023-02-01T11:17:12;7.00;;;1.40;;
70967;SDS011;58629;48.808;8.820;2023-02-01T11:20:00;5.30;;;1.67;;
70967;SDS011;58629;48.808;8.820;2023-02-01T11:22:29;6.97;;;1.60;;
70967;SDS011;58629;48.808;8.820;2023-02-01T11:24:55;5.50;;;1.40;;
70967;SDS011;58629;48.808;8.820;2023-02-01T11:27:21;4.25;;;1.20;;
70967;SDS011;58629;48.808;8.820;2023-02-01T11:29:50;8.20;;;1.33;;
70967;SDS011;58629;48.808;8.820;2023-02-01T11:32:19;5.20;;;1.35;;
70967;SDS011;58629;48.808;8.820;2023-02-01T11:34:47;5.53;;;1.20;;
70967;SDS011;58629;48.808;8.820;2023-02-01T11:37:21;6.13;;;1.30;;
70967;SDS011;58629;48.808;8.820;2023-02-01T11:39:58;6.68;;;1.30;;
70967;SDS011;58629;48.808;8.820;2023-02-01T11:42:26;7.18;;;1.45;;
70967;SDS011;58629;48.808;8.820;2023-02-01T11:45:09;6.68;;;1.63;;
70967;SDS011;58629;48.808;8.820;2023-02-01T11:47:45;6.77;;;1.50;;
70967;SDS011;58629;48.808;8.820;2023-02-01T11:56:51;6.72;;;1.30;;
70967;SDS011;58629;48.808;8.820;2023-02-01T11:59:28;7.78;;;1.48;;
70967;SDS011;58629;48.808;8.820;2023-02-01T12:05:18;6.75;;;1.17;;
70967;SDS011;58629;48.808;8.820;2023-02-01T12:08:08;6.47;;;1.30;;
70967;SDS011;58629;48.808;8.820;2023-02-01T12:17:08;7.07;;;1.60;;
70967;SDS011;58629;48.808;8.820;2023-02-01T12:20:07;5.63;;;1.30;;
70967;SDS011;58629;48.808;8.820;2023-02-01T12:25:31;6.22;;;1.35;;
70967;SDS011;58629;48.808;8.820;2023-02-01T12:41:45;8.05;;;1.80;;
70967;SDS011;58629;48.808;8.820;2023-02-01T12:44:27;6.25;;;1.77;;
70967;SDS011;58629;48.808;8.820;2023-02-01T12:46:58;9.15;;;1.30;;
70967;SDS011;58629;48.808;8.820;2023-02-01T12:52:18;6.90;;;1.88;;
70967;SDS011;58629;48.808;8.820;2023-02-01T12:54:50;6.45;;;1.35;;
70967;SDS011;58629;48.808;8.820;2023-02-01T12:57:30;7.10;;;1.55;;
70967;SDS011;58629;48.808;8.820;2023-02-01T13:00:41;6.45;;;1.75;;
70967;SDS011;58629;48.808;8.820;2023-02-01T13:08:56;8.75;;;1.55;;
70967;SDS011;58629;48.808;8.820;2023-02-01T13:11:37;6.00;;;1.67;;
70967;SDS011;58629;48.808;8.820;2023-02-01T13:16:52;5.13;;;1.50;;
70967;SDS011;58629;48.808;8.820;2023-02-01T13:19:26;7.75;;;1.50;;
70967;SDS011;58629;48.808;8.820;2023-02-01T13:22:00;6.22;;;1.50;;
70967;SDS011;58629;48.808;8.820;2023-02-01T13:27:00;6.70;;;1.90;;
70967;SDS011;58629;48.808;8.820;2023-02-01T13:29:26;5.47;;;1.50;;
70967;SDS011;58629;48.808;8.820;2023-02-01T13:32:01;7.60;;;1.50;;
70967;SDS011;58629;48.808;8.820;2023-02-01T13:40:33;4.07;;;1.60;;
70967;SDS011;58629;48.808;8.820;2023-02-01T13:43:11;6.10;;;1.90;;
70967;SDS011;58629;48.808;8.820;2023-02-01T13:45:50;8.98;;;1.70;;
70967;SDS011;58629;48.808;8.820;2023-02-01T13:48:38;4.55;;;1.25;;
70967;SDS011;58629;48.808;8.820;2023-02-01T13:51:11;7.00;;;1.60;;
70967;SDS011;58629;48.808;8.820;2023-02-01T13:53:37;8.63;;;1.53;;
70967;SDS011;58629;48.808;8.820;2023-02-01T13:56:15;5.63;;;1.50;;
70967;SDS011;58629;48.808;8.820;2023-02-01T13:58:43;5.82;;;1.58;;
70967;SDS011;58629;48.808;8.820;2023-02-01T14:03:54;5.53;;;1.40;;
70967;SDS011;58629;48.808;8.820;2023-02-01T14:11:36;6.47;;;1.58;;
70967;SDS011;58629;48.808;8.820;2023-02-01T14:16:39;7.82;;;1.50;;
70967;SDS011;58629;48.808;8.820;2023-02-01T14:19:07;5.10;;;1.53;;
70967;SDS011;58629;48.808;8.820;2023-02-01T14:21:34;8.70;;;1.70;;
70967;SDS011;58629;48.808;8.820;2023-02-01T14:24:16;5.63;;;1.52;;
70967;SDS011;58629;48.808;8.820;2023-02-01T14:26:49;8.93;;;1.92;;
70967;SDS011;58629;48.808;8.820;2023-02-01T14:34:22;7.72;;;1.83;;
70967;SDS011;58629;48.808;8.820;2023-02-01T14:36:56;5.77;;;2.10;;
70967;SDS011;58629;48.808;8.820;2023-02-01T14:39:26;4.55;;;1.63;;
70967;SDS011;58629;48.808;8.820;2023-02-01T14:41:59;6.10;;;1.75;;
70967;SDS011;58629;48.808;8.820;2023-02-01T14:44:28;6.28;;;1.70;;
70967;SDS011;58629;48.808;8.820;2023-02-01T14:47:05;8.25;;;1.75;;
70967;SDS011;58629;48.808;8.820;2023-02-01T14:50:04;5.00;;;1.50;;
70967;SDS011;58629;48.808;8.820;2023-02-01T14:52:45;6.43;;;1.70;;
70967;SDS011;58629;48.808;8.820;2023-02-01T14:58:05;7.80;;;1.70;;
70967;SDS011;58629;48.808;8.820;2023-02-01T15:00:46;7.60;;;1.80;;
70967;SDS011;58629;48.808;8.820;2023-02-01T15:06:18;7.78;;;1.63;;
70967;SDS011;58629;48.808;8.820;2023-02-01T15:08:45;6.22;;;1.60;;
70967;SDS011;58629;48.808;8.820;2023-02-01T15:11:14;7.37;;;1.43;;
70967;SDS011;58629;48.808;8.820;2023-02-01T15:13:47;6.35;;;1.20;;
70967;SDS011;58629;48.808;8.820;2023-02-01T15:16:15;6.10;;;1.45;;
70967;SDS011;58629;48.808;8.820;2023-02-01T15:18:43;6.85;;;1.50;;
70967;SDS011;58629;48.808;8.820;2023-02-01T15:21:21;6.40;;;1.60;;
70967;SDS011;58629;48.808;8.820;2023-02-01T15:23:48;6.00;;;1.33;;
70967;SDS011;58629;48.808;8.820;2023-02-01T15:26:28;8.10;;;1.60;;
70967;SDS011;58629;48.808;8.820;2023-02-01T15:28:56;9.20;;;1.40;;
70967;SDS011;58629;48.808;8.820;2023-02-01T15:31:42;7.85;;;1.20;;
70967;SDS011;58629;48.808;8.820;2023-02-01T15:34:10;6.95;;;1.40;;
70967;SDS011;58629;48.808;8.820;2023-02-01T15:36:36;5.20;;;1.58;;
70967;SDS011;58629;48.808;8.820;2023-02-01T15:39:21;4.87;;;1.20;;
70967;SDS011;58629;48.808;8.820;2023-02-01T15:41:54;5.45;;;1.33;;
70967;SDS011;58629;48.808;8.820;2023-02-01T15:44:33;6.55;;;1.45;;
70967;SDS011;58629;48.808;8.820;2023-02-01T15:47:06;9.23;;;1.58;;
70967;SDS011;58629;48.808;8.820;2023-02-01T15:49:39;5.38;;;1.23;;
70967;SDS011;58629;48.808;8.820;2023-02-01T15:52:30;6.40;;;1.33;;
70967;SDS011;58629;48.808;8.820;2023-02-01T15:55:04;6.72;;;1.50;;
70967;SDS011;58629;48.808;8.820;2023-02-01T15:57:36;7.65;;;1.45;;
70967;SDS011;58629;48.808;8.820;2023-02-01T16:00:06;7.47;;;1.25;;
70967;SDS011;58629;48.808;8.820;2023-02-01T16:02:51;6.10;;;1.30;;
70967;SDS011;58629;48.808;8.820;2023-02-01T16:05:28;6.20;;;1.30;;
70967;SDS011;58629;48.808;8.820;2023-02-01T16:08:00;4.40;;;1.40;;
70967;SDS011;58629;48.808;8.820;2023-02-01T16:10:41;6.28;;;1.77;;
70967;SDS011;58629;48.808;8.820;2023-02-01T16:13:08;6.65;;;1.60;;
70967;SDS011;58629;48.808;8.820;2023-02-01T16:15:35;8.70;;;1.50;;
70967;SDS011;58629;48.808;8.820;2023-02-01T16:18:00;7.00;;;1.50;;
70967;SDS011;58629;48.808;8.820;2023-02-01T16:20:26;5.70;;;1.20;;
70967;SDS011;58629;48.808;8.820;2023-02-01T16:22:51;7.87;;;1.63;;
70967;SDS011;58629;48.808;8.820;2023-02-01T16:25:16;6.37;;;1.30;;
70967;SDS011;58629;48.808;8.820;2023-02-01T16:27:41;4.80;;;1.60;;
70967;SDS011;58629;48.808;8.820;2023-02-01T16:30:07;6.63;;;1.33;;
70967;SDS011;58629;48.808;8.820;2023-02-01T16:32:34;4.50;;;1.10;;
70967;SDS011;58629;48.808;8.820;2023-02-01T16:35:03;3.22;;;1.15;;
70967;SDS011;58629;48.808;8.820;2023-02-01T16:37:40;6.75;;;1.58;;
70967;SDS011;58629;48.808;8.820;2023-02-01T16:40:05;6.57;;;1.67;;
70967;SDS011;58629;48.808;8.820;2023-02-01T16:42:34;8.15;;;1.63;;
70967;SDS011;58629;48.808;8.820;2023-02-01T16:45:02;8.03;;;1.70;;
70967;SDS011;58629;48.808;8.820;2023-02-01T16:47:29;5.38;;;1.80;;
70967;SDS011;58629;48.808;8.820;2023-02-01T16:49:54;7.43;;;1.63;;
70967;SDS011;58629;48.808;8.820;2023-02-01T16:52:24;7.60;;;1.30;;
70967;SDS011;58629;48.808;8.820;2023-02-01T16:54:51;5.20;;;1.37;;
70967;SDS011;58629;48.808;8.820;2023-02-01T16:57:18;5.68;;;1.35;;
70967;SDS011;58629;48.808;8.820;2023-02-01T16:59:44;5.03;;;1.40;;
70967;SDS011;58629;48.808;8.820;2023-02-01T17:02:14;3.43;;;1.47;;
70967;SDS011;58629;48.808;8.820;2023-02-01T17:04:41;6.60;;;1.40;;
70967;SDS011;58629;48.808;8.820;2023-02-01T17:07:10;6.97;;;1.55;;
70967;SDS011;58629;48.808;8.820;2023-02-01T17:09:37;8.07;;;1.38;;
70967;SDS011;58629;48.808;8.820;2023-02-01T17:12:03;5.87;;;1.40;;
70967;SDS011;58629;48.808;8.820;2023-02-01T17:14:30;8.68;;;1.67;;
70967;SDS011;58629;48.808;8.820;2023-02-01T17:16:59;6.32;;;1.50;;
70967;SDS011;58629;48.808;8.820;2023-02-01T17:19:25;6.63;;;1.60;;
70967;SDS011;58629;48.808;8.820;2023-02-01T17:21:51;6.20;;;1.30;;
70967;SDS011;58629;48.808;8.820;2023-02-01T17:24:21;7.68;;;1.90;;
70967;SDS011;58629;48.808;8.820;2023-02-01T17:26:48;5.07;;;1.47;;
70967;SDS011;58629;48.808;8.820;2023-02-01T17:29:15;7.90;;;1.60;;
70967;SDS011;58629;48.808;8.820;2023-02-01T17:31:42;6.20;;;1.30;;